createdAt,value
2023-01-03T00:02:30.599Z,9.63
2023-01-03T00:05:16.938Z,9.60
2023-01-03T00:08:03.508Z,7.43
2023-01-03T00:10:49.806Z,8.50
2023-01-03T00:13:35.258Z,7.67
2023-01-03T00:16:22.782Z,7.97
2023-01-03T00:19:11.260Z,8.77
2023-01-03T00:21:57.631Z,7.50
2023-01-03T00:24:44.063Z,8.30
2023-01-03T00:27:30.587Z,8.70
2023-01-03T00:30:17.305Z,8.40
2023-01-03T00:33:06.580Z,8.77
2023-01-03T00:35:54.242Z,8.70
2023-01-03T00:38:40.830Z,9.20
2023-01-03T00:41:27.077Z,8.50
2023-01-03T00:44:13.289Z,7.67
2023-01-03T00:46:59.470Z,8.60
2023-01-03T00:49:45.651Z,6.97
2023-01-03T00:52:33.524Z,6.93
2023-01-03T00:55:19.879Z,7.63
2023-01-03T00:58:06.061Z,7.07
2023-01-03T01:00:52.300Z,8.00
2023-01-03T01:03:39.392Z,7.40
2023-01-03T01:06:27.394Z,7.60
2023-01-03T01:09:15.889Z,6.70
2023-01-03T01:12:02.459Z,7.27
2023-01-03T01:14:48.566Z,7.83
2023-01-03T01:17:34.883Z,5.40
2023-01-03T01:20:21.427Z,4.97
2023-01-03T01:23:08.047Z,5.07
2023-01-03T01:25:55.934Z,6.57
2023-01-03T01:28:42.740Z,7.63
2023-01-03T01:31:29.224Z,7.77
2023-01-03T01:34:17.465Z,6.57
2023-01-03T01:37:03.802Z,8.30
2023-01-03T01:39:50.027Z,8.17
2023-01-03T01:42:55.188Z,9.13
2023-01-03T01:45:41.919Z,8.80
2023-01-03T01:48:28.478Z,7.40
2023-01-03T01:51:15.019Z,7.87
2023-01-03T01:54:02.942Z,9.43
2023-01-03T01:56:51.465Z,7.07
2023-01-03T01:59:39.604Z,6.93
2023-01-03T02:02:26.062Z,7.57
2023-01-03T02:05:12.889Z,8.10
2023-01-03T02:07:59.558Z,8.27
2023-01-03T02:10:56.274Z,9.23
2023-01-03T02:13:51.328Z,8.00
2023-01-03T02:16:52.976Z,7.27
2023-01-03T02:19:51.590Z,8.40
2023-01-03T02:23:01.683Z,7.57
2023-01-03T02:26:00.192Z,6.53
2023-01-03T02:29:03.425Z,6.53
2023-01-03T02:31:54.014Z,6.77
2023-01-03T02:34:44.211Z,8.47
2023-01-03T02:37:33.018Z,8.20
2023-01-03T02:40:21.766Z,8.60
2023-01-03T02:43:13.751Z,6.47
2023-01-03T02:46:02.998Z,9.17
2023-01-03T02:48:52.902Z,9.33
2023-01-03T02:51:40.869Z,9.07
2023-01-03T02:54:29.747Z,8.67
2023-01-03T02:57:17.793Z,8.33
2023-01-03T03:00:08.285Z,7.77
2023-01-03T03:02:57.038Z,6.93
2023-01-03T03:05:47.723Z,8.47
2023-01-03T03:08:34.108Z,6.23
2023-01-03T03:11:38.049Z,6.90
2023-01-03T03:14:26.570Z,7.43
2023-01-03T03:17:14.781Z,6.00
2023-01-03T03:20:18.495Z,6.17
2023-01-03T03:23:26.963Z,5.80
2023-01-03T03:26:15.446Z,5.37
2023-01-03T03:29:03.140Z,4.30
2023-01-03T03:31:50.755Z,3.50
2023-01-03T03:34:38.321Z,3.53
2023-01-03T03:37:25.615Z,4.70
2023-01-03T03:40:30.685Z,4.00
2023-01-03T03:43:36.896Z,3.87
2023-01-03T03:46:28.271Z,3.93
2023-01-03T03:49:33.765Z,5.40
2023-01-03T03:52:22.055Z,4.80
2023-01-03T03:55:11.182Z,5.33
2023-01-03T03:58:01.132Z,6.00
2023-01-03T04:00:49.091Z,3.93
2023-01-03T04:03:36.065Z,4.13
2023-01-03T04:06:23.857Z,5.00
2023-01-03T04:09:10.171Z,4.40
2023-01-03T04:11:56.312Z,3.73
2023-01-03T04:14:43.912Z,4.80
2023-01-03T04:17:30.266Z,6.97
2023-01-03T04:20:16.595Z,6.60
2023-01-03T04:23:02.727Z,5.70
2023-01-03T04:25:49.763Z,6.43
2023-01-03T04:28:35.806Z,5.77
2023-01-03T04:31:23.648Z,3.80
2023-01-03T04:34:10.097Z,6.10
2023-01-03T04:36:56.106Z,6.00
2023-01-03T04:39:42.505Z,6.67
2023-01-03T04:42:46.298Z,7.10
2023-01-03T04:45:32.591Z,6.17
2023-01-03T04:48:20.569Z,4.63
2023-01-03T04:51:07.251Z,5.47
2023-01-03T04:53:53.956Z,5.23
2023-01-03T04:56:40.018Z,5.50
2023-01-03T04:59:26.161Z,5.30
2023-01-03T05:02:12.637Z,4.90
2023-01-03T05:05:00.173Z,4.33
2023-01-03T05:07:46.549Z,7.73
2023-01-03T05:10:32.644Z,4.57
2023-01-03T05:13:18.798Z,6.07
2023-01-03T05:16:06.725Z,7.27
2023-01-03T05:18:53.538Z,6.50
2023-01-03T05:21:59.270Z,6.17
2023-01-03T05:25:03.392Z,4.10
2023-01-03T05:27:49.476Z,4.07
2023-01-03T05:30:36.013Z,5.93
2023-01-03T05:33:22.261Z,4.87
2023-01-03T05:36:09.601Z,5.13
2023-01-03T05:38:57.121Z,6.90
2023-01-03T05:42:01.742Z,8.67
2023-01-03T05:44:48.582Z,6.07
2023-01-03T05:47:35.266Z,10.53
2023-01-03T05:50:21.492Z,10.33
2023-01-03T05:53:07.951Z,6.17
2023-01-03T05:55:55.587Z,6.33
2023-01-03T05:58:45.750Z,8.07
2023-01-03T06:01:31.912Z,7.37
2023-01-03T06:04:18.655Z,8.90
2023-01-03T06:07:05.411Z,7.87
2023-01-03T06:09:51.492Z,8.63
2023-01-03T06:12:39.757Z,7.77
2023-01-03T06:15:26.185Z,24.77
2023-01-03T06:18:11.532Z,12.00
2023-01-03T06:20:58.139Z,8.30
2023-01-03T06:23:47.490Z,10.37
2023-01-03T06:26:33.883Z,8.57
2023-01-03T06:29:21.909Z,8.47
2023-01-03T06:32:09.817Z,9.77
2023-01-03T06:34:56.661Z,12.50
2023-01-03T06:37:42.994Z,13.07
2023-01-03T06:40:37.037Z,13.47
2023-01-03T06:43:25.732Z,7.97
2023-01-03T06:46:33.074Z,9.30
2023-01-03T06:49:36.991Z,11.23
2023-01-03T06:52:43.438Z,9.27
2023-01-03T06:55:30.032Z,9.60
2023-01-03T06:58:16.530Z,9.50
2023-01-03T07:01:04.584Z,11.10
2023-01-03T07:03:52.686Z,9.73
2023-01-03T07:06:39.137Z,12.93
2023-01-03T07:09:25.856Z,11.13
2023-01-03T07:12:26.217Z,11.53
2023-01-03T07:15:12.949Z,12.07
2023-01-03T07:17:59.193Z,9.43
2023-01-03T07:20:47.342Z,9.70
2023-01-03T07:23:33.652Z,13.43
2023-01-03T07:26:19.846Z,15.87
2023-01-03T07:29:07.024Z,15.83
2023-01-03T07:31:53.145Z,14.63
2023-01-03T07:34:39.444Z,22.23
2023-01-03T07:37:27.207Z,15.97
2023-01-03T07:40:13.743Z,9.13
2023-01-03T07:43:17.367Z,8.70
2023-01-03T07:46:06.264Z,6.47
2023-01-03T07:48:53.716Z,5.93
2023-01-03T07:51:39.884Z,7.93
2023-01-03T07:54:27.875Z,7.80
2023-01-03T07:57:15.736Z,8.90
2023-01-03T08:00:01.954Z,8.90
2023-01-03T08:02:48.845Z,8.07
2023-01-03T08:05:35.805Z,8.77
2023-01-03T08:08:21.905Z,6.40
2023-01-03T08:11:29.498Z,6.97
2023-01-03T08:14:19.258Z,5.47
2023-01-03T08:17:09.733Z,8.10
2023-01-03T08:19:56.496Z,8.37
2023-01-03T08:22:42.910Z,8.23
2023-01-03T08:25:29.347Z,8.63
2023-01-03T08:28:17.279Z,9.00
2023-01-03T08:31:04.885Z,7.40
2023-01-03T08:33:53.680Z,9.23
2023-01-03T08:36:42.219Z,7.87
2023-01-03T08:39:30.715Z,9.87
2023-01-03T08:42:20.763Z,7.50
2023-01-03T08:45:11.506Z,7.87
2023-01-03T08:47:58.804Z,8.57
2023-01-03T08:50:45.077Z,7.73
2023-01-03T08:53:31.279Z,9.30
2023-01-03T08:56:17.358Z,8.13
2023-01-03T08:59:03.698Z,7.50
2023-01-03T09:01:51.384Z,8.70
2023-01-03T09:04:38.499Z,8.17
2023-01-03T09:07:24.980Z,7.50
2023-01-03T09:10:11.551Z,8.73
2023-01-03T09:12:57.904Z,7.90
2023-01-03T09:15:44.394Z,6.73
2023-01-03T09:18:32.340Z,7.83
2023-01-03T09:21:18.950Z,9.00
2023-01-03T09:24:05.712Z,9.03
2023-01-03T09:26:54.803Z,8.47
2023-01-03T09:29:41.772Z,9.20
2023-01-03T09:32:28.222Z,9.07
2023-01-03T09:35:15.893Z,8.47
2023-01-03T09:38:02.628Z,7.73
2023-01-03T09:40:50.743Z,8.97
2023-01-03T09:43:41.112Z,7.83
2023-01-03T09:46:29.022Z,6.80
2023-01-03T09:49:15.443Z,6.40
2023-01-03T09:52:20.650Z,6.90
2023-01-03T09:55:37.544Z,5.93
2023-01-03T09:58:41.308Z,5.83
2023-01-03T10:01:50.365Z,5.20
2023-01-03T10:04:49.086Z,5.77
2023-01-03T10:07:46.589Z,6.77
2023-01-03T10:10:38.214Z,6.97
2023-01-03T10:13:30.072Z,8.00
2023-01-03T10:16:20.003Z,6.13
2023-01-03T10:19:13.561Z,5.23
2023-01-03T10:22:04.231Z,7.23
2023-01-03T10:24:57.085Z,9.80
2023-01-03T10:27:46.240Z,7.00
2023-01-03T10:30:37.578Z,6.37
2023-01-03T10:33:29.607Z,7.47
2023-01-03T10:36:16.713Z,8.47
2023-01-03T10:39:07.348Z,6.83
2023-01-03T10:41:58.214Z,6.27
2023-01-03T10:44:57.030Z,6.40
2023-01-03T10:47:43.756Z,3.70
2023-01-03T10:50:30.637Z,2.70
2023-01-03T10:53:18.938Z,2.60
2023-01-03T10:56:06.260Z,2.90
2023-01-03T10:59:10.836Z,3.00
2023-01-03T11:01:58.083Z,2.70
2023-01-03T11:04:45.237Z,2.80
2023-01-03T11:07:31.951Z,2.40
2023-01-03T11:10:18.864Z,2.13
2023-01-03T11:13:17.898Z,2.27
2023-01-03T11:16:14.451Z,3.60
2023-01-03T11:19:01.869Z,2.70
2023-01-03T11:21:52.733Z,12.97
2023-01-03T11:24:50.973Z,3.47
2023-01-03T11:27:55.057Z,3.37
2023-01-03T11:30:47.400Z,2.87
2023-01-03T11:33:49.991Z,1.90
2023-01-03T11:36:41.608Z,2.17
2023-01-03T11:39:42.870Z,2.20
2023-01-03T11:42:35.655Z,2.17
2023-01-03T11:45:39.602Z,2.30
2023-01-03T11:48:36.965Z,2.10
2023-01-03T11:51:29.960Z,1.67
2023-01-03T11:54:29.907Z,2.10
2023-01-03T11:57:20.114Z,3.40
2023-01-03T12:00:11.534Z,2.30
2023-01-03T12:03:06.774Z,1.83
2023-01-03T12:05:55.134Z,1.90
2023-01-03T12:08:59.386Z,2.00
2023-01-03T12:11:53.752Z,1.97
2023-01-03T12:14:41.360Z,1.90
2023-01-03T12:17:30.925Z,2.03
2023-01-03T12:20:20.824Z,2.27
2023-01-03T12:23:15.810Z,2.27
2023-01-03T12:26:05.489Z,1.60
2023-01-03T12:28:53.325Z,2.10
2023-01-03T12:31:41.075Z,1.87
2023-01-03T12:34:31.486Z,2.00
2023-01-03T12:37:20.315Z,2.40
2023-01-03T12:40:11.749Z,15.27
2023-01-03T12:43:05.703Z,11.37
2023-01-03T12:45:54.827Z,15.67
2023-01-03T12:48:51.677Z,7.30
2023-01-03T12:51:38.437Z,11.03
2023-01-03T12:54:28.498Z,3.10
2023-01-03T12:57:42.499Z,2.43
2023-01-03T13:00:41.160Z,2.03
2023-01-03T13:03:31.089Z,1.90
2023-01-03T13:06:18.595Z,1.90
2023-01-03T13:09:05.542Z,1.90
2023-01-03T13:11:52.824Z,1.73
2023-01-03T13:14:52.813Z,2.03
2023-01-03T13:17:45.553Z,1.90
2023-01-03T13:20:36.947Z,2.10
2023-01-03T13:23:31.962Z,2.57
2023-01-03T13:26:22.666Z,2.13
2023-01-03T13:29:39.112Z,2.57
2023-01-03T13:32:28.002Z,2.17
2023-01-03T13:35:32.226Z,2.20
2023-01-03T13:38:24.486Z,2.70
2023-01-03T13:41:30.585Z,2.50
2023-01-03T13:44:18.799Z,2.47
2023-01-03T13:47:05.349Z,2.70
2023-01-03T13:49:54.007Z,1.70
2023-01-03T13:52:58.036Z,2.10
2023-01-03T13:55:54.251Z,1.93
2023-01-03T13:58:43.854Z,1.93
2023-01-03T14:01:34.366Z,1.50
2023-01-03T14:04:35.603Z,1.60
2023-01-03T14:07:41.156Z,1.50
2023-01-03T14:10:39.319Z,1.67
2023-01-03T14:13:43.705Z,2.20
2023-01-03T14:16:31.780Z,1.60
2023-01-03T14:19:20.853Z,2.13
2023-01-03T14:22:28.536Z,1.67
2023-01-03T14:25:30.195Z,3.90
2023-01-03T14:28:19.165Z,1.70
2023-01-03T14:31:06.484Z,3.00
2023-01-03T14:33:55.465Z,1.90
2023-01-03T14:36:46.070Z,6.20
2023-01-03T14:42:19.681Z,4.50
2023-01-03T14:45:08.755Z,3.70
2023-01-03T14:47:55.799Z,2.70
2023-01-03T14:50:43.031Z,3.67
2023-01-03T14:53:29.771Z,4.37
2023-01-03T14:56:16.287Z,6.00
2023-01-03T14:59:04.051Z,5.93
2023-01-03T15:01:52.172Z,2.93
2023-01-03T15:04:42.729Z,6.60
2023-01-03T15:07:33.973Z,6.70
2023-01-03T15:10:23.324Z,13.70
2023-01-03T15:13:16.965Z,7.17
2023-01-03T15:16:04.855Z,10.50
2023-01-03T15:18:52.882Z,15.00
2023-01-03T15:21:39.549Z,21.30
2023-01-03T15:24:25.890Z,8.10
2023-01-03T15:27:31.112Z,5.93
2023-01-03T15:30:23.464Z,11.53
2023-01-03T15:33:21.640Z,8.03
2023-01-03T15:36:18.516Z,17.50
2023-01-03T15:39:08.772Z,12.47
2023-01-03T15:42:43.551Z,4.77
2023-01-03T15:45:25.516Z,9.83
2023-01-03T15:48:17.530Z,8.40
2023-01-03T15:51:04.836Z,6.83
2023-01-03T15:53:53.389Z,11.93
2023-01-03T15:56:45.371Z,19.90
2023-01-03T15:59:36.821Z,19.03
2023-01-03T16:02:28.123Z,25.27
2023-01-03T16:05:21.323Z,23.23
2023-01-03T16:08:16.075Z,35.17
2023-01-03T16:11:05.313Z,30.90
2023-01-03T16:13:53.084Z,20.87
2023-01-03T16:16:41.341Z,19.97
2023-01-03T16:19:29.049Z,19.77
2023-01-03T16:25:22.235Z,19.30
2023-01-03T16:28:12.470Z,17.93
2023-01-03T16:31:03.641Z,17.43
2023-01-03T16:33:50.561Z,19.17
2023-01-03T16:36:38.273Z,22.70
2023-01-03T16:39:26.034Z,33.03
2023-01-03T16:42:15.360Z,34.27
2023-01-03T16:45:03.384Z,34.10
2023-01-03T16:47:49.956Z,28.60
2023-01-03T16:50:39.345Z,22.43
2023-01-03T16:53:28.277Z,21.63
2023-01-03T16:56:14.407Z,25.33
2023-01-03T16:59:00.812Z,29.30
2023-01-03T17:01:48.943Z,39.10
2023-01-03T17:04:35.827Z,71.13
2023-01-03T17:07:23.538Z,40.40
2023-01-03T17:10:14.119Z,64.67
2023-01-03T17:13:02.830Z,44.07
2023-01-03T17:15:53.564Z,38.43
2023-01-03T17:18:43.047Z,57.37
2023-01-03T17:21:30.872Z,67.47
2023-01-03T17:24:18.281Z,61.47
2023-01-03T17:27:05.580Z,66.40
2023-01-03T17:29:54.991Z,88.43
2023-01-03T17:32:41.079Z,140.97
2023-01-03T17:35:29.119Z,155.70
2023-01-03T17:38:32.097Z,40.93
2023-01-03T17:41:19.924Z,102.20
2023-01-03T17:44:06.190Z,50.87
2023-01-03T17:47:10.171Z,28.67
2023-01-03T17:49:56.405Z,14.60
2023-01-03T17:52:46.798Z,10.83
2023-01-03T17:55:35.280Z,22.73
2023-01-03T17:58:32.254Z,18.67
2023-01-03T18:01:18.635Z,16.63
2023-01-03T18:04:05.269Z,12.83
2023-01-03T18:06:54.973Z,58.50
2023-01-03T18:09:42.916Z,62.90
2023-01-03T18:12:29.415Z,48.70
2023-01-03T18:15:17.904Z,56.63
2023-01-03T18:18:04.377Z,63.87
2023-01-03T18:20:50.671Z,114.80
2023-01-03T18:23:38.942Z,97.23
2023-01-03T18:26:28.954Z,56.53
2023-01-03T18:29:16.231Z,51.17
2023-01-03T18:32:02.682Z,34.07
2023-01-03T18:34:49.030Z,23.07
2023-01-03T18:37:37.584Z,16.73
2023-01-03T18:40:27.424Z,23.87
2023-01-03T18:43:16.273Z,17.07
2023-01-03T18:46:04.922Z,14.93
2023-01-03T18:48:51.549Z,15.37
2023-01-03T18:51:38.109Z,17.27
2023-01-03T18:54:24.582Z,20.13
2023-01-03T18:57:12.389Z,21.97
2023-01-03T19:00:00.196Z,21.17
2023-01-03T19:02:46.808Z,19.10
2023-01-03T19:05:33.748Z,19.70
2023-01-03T19:08:21.312Z,18.97
2023-01-03T19:11:09.041Z,18.47
2023-01-03T19:13:56.294Z,18.10
2023-01-03T19:16:44.072Z,12.93
2023-01-03T19:19:30.425Z,13.27
2023-01-03T19:22:18.749Z,12.87
2023-01-03T19:25:06.599Z,22.33
2023-01-03T19:27:54.386Z,23.50
2023-01-03T19:30:41.561Z,24.70
2023-01-03T19:33:28.981Z,21.03
2023-01-03T19:36:15.862Z,24.87
2023-01-03T19:39:02.433Z,18.63
2023-01-03T19:42:07.613Z,22.63
2023-01-03T19:44:55.192Z,21.20
2023-01-03T19:47:41.691Z,22.27
2023-01-03T19:50:30.188Z,22.30
2023-01-03T19:53:16.566Z,21.63
2023-01-03T19:56:03.939Z,19.47
2023-01-03T19:58:50.969Z,14.13
2023-01-03T20:01:58.242Z,18.60
2023-01-03T20:04:45.157Z,20.27
2023-01-03T20:07:33.359Z,21.17
2023-01-03T20:10:20.630Z,23.37
2023-01-03T20:13:07.277Z,22.60
2023-01-03T20:15:54.275Z,24.83
2023-01-03T20:18:41.995Z,18.30
2023-01-03T20:21:30.426Z,16.43
2023-01-03T20:24:22.334Z,22.63
2023-01-03T20:27:11.053Z,20.53
2023-01-03T20:29:57.001Z,17.67
2023-01-03T20:32:43.529Z,17.03
2023-01-03T20:38:37.170Z,9.70
2023-01-03T20:41:36.127Z,11.30
2023-01-03T20:44:23.152Z,20.73
2023-01-03T20:47:11.462Z,17.37
2023-01-03T20:49:58.094Z,15.73
2023-01-03T20:52:44.611Z,14.57
2023-01-03T20:55:30.632Z,15.13
2023-01-03T20:58:19.692Z,14.40
2023-01-03T21:01:06.404Z,13.67
2023-01-03T21:03:53.382Z,16.63
2023-01-03T21:06:41.905Z,18.63
2023-01-03T21:09:28.217Z,15.50
2023-01-03T21:12:14.771Z,13.23
2023-01-03T21:15:02.442Z,30.67
2023-01-03T21:17:51.036Z,24.87
2023-01-03T21:20:37.890Z,25.97
2023-01-03T21:23:25.660Z,25.77
2023-01-03T21:26:11.750Z,16.27
2023-01-03T21:28:58.322Z,23.80
2023-01-03T21:31:46.687Z,15.50
2023-01-03T21:34:33.200Z,13.27
2023-01-03T21:37:19.643Z,10.43
2023-01-03T21:40:06.657Z,9.63
2023-01-03T21:43:05.256Z,9.13
2023-01-03T21:45:54.928Z,12.37
2023-01-03T21:48:43.855Z,13.90
2023-01-03T21:51:38.310Z,11.27
2023-01-03T21:54:25.836Z,11.83
2023-01-03T21:57:19.253Z,10.90
2023-01-03T22:00:11.734Z,11.60
2023-01-03T22:03:15.490Z,11.30
2023-01-03T22:06:11.916Z,14.83
2023-01-03T22:08:59.978Z,26.27
2023-01-03T22:11:46.245Z,20.10
2023-01-03T22:14:32.555Z,19.97
2023-01-03T22:17:19.070Z,11.93
2023-01-03T22:20:06.534Z,9.50
2023-01-03T22:22:54.538Z,16.20
2023-01-03T22:25:40.757Z,15.87
2023-01-03T22:28:26.792Z,13.03
2023-01-03T22:31:13.982Z,10.90
2023-01-03T22:34:00.572Z,8.63
2023-01-03T22:36:46.813Z,9.33
2023-01-03T22:39:34.884Z,9.07
2023-01-03T22:42:21.505Z,9.30
2023-01-03T22:45:08.289Z,8.57
2023-01-03T22:47:54.860Z,8.43
2023-01-03T22:50:41.530Z,9.53
2023-01-03T22:53:27.777Z,8.10
2023-01-03T22:56:16.302Z,9.10
2023-01-03T22:59:02.850Z,11.60
2023-01-03T23:01:50.318Z,13.13
2023-01-03T23:04:37.129Z,11.83
2023-01-03T23:07:23.765Z,10.77
2023-01-03T23:10:10.829Z,11.57
2023-01-03T23:13:01.142Z,10.50
2023-01-03T23:15:47.673Z,11.80
2023-01-03T23:18:34.240Z,10.30
2023-01-03T23:21:20.601Z,18.67
2023-01-03T23:24:07.137Z,16.23
2023-01-03T23:26:53.855Z,16.33
2023-01-03T23:29:41.431Z,15.70
2023-01-03T23:32:27.681Z,11.67
2023-01-03T23:35:14.300Z,10.63
2023-01-03T23:38:00.380Z,10.93
2023-01-03T23:40:46.891Z,9.37
2023-01-03T23:43:33.173Z,11.40
2023-01-03T23:46:21.526Z,9.93
2023-01-03T23:49:08.183Z,9.87
2023-01-03T23:51:54.453Z,9.90
2023-01-03T23:54:40.808Z,10.03
2023-01-03T23:57:27.432Z,12.40
